createdAt,value
2023-07-15T00:00:54.557Z,99913.19
2023-07-15T00:05:58.503Z,99917.88
2023-07-15T00:11:01.490Z,99919.22
2023-07-15T00:16:05.832Z,99904.00
2023-07-15T00:21:14.254Z,99893.84
2023-07-15T00:26:17.210Z,99883.19
2023-07-15T00:31:21.666Z,99892.31
2023-07-15T00:36:24.975Z,99895.88
2023-07-15T00:41:29.106Z,99894.19
2023-07-15T00:47:13.861Z,99889.63
2023-07-15T00:52:17.788Z,99884.84
2023-07-15T00:57:20.650Z,99880.28
2023-07-15T01:02:25.068Z,99876.91
2023-07-15T01:07:28.003Z,99860.00
2023-07-15T01:12:31.266Z,99854.94
2023-07-15T01:17:35.554Z,99869.59
2023-07-15T01:22:39.831Z,99863.69
2023-07-15T01:27:43.029Z,99862.19
2023-07-15T01:32:45.849Z,99856.41
2023-07-15T01:37:50.088Z,99854.72
2023-07-15T01:42:53.784Z,99857.75
2023-07-15T01:47:56.653Z,99862.16
2023-07-15T01:53:01.161Z,99857.44
2023-07-15T01:58:04.147Z,99861.34
2023-07-15T02:03:07.123Z,99871.47
2023-07-15T02:08:11.399Z,99866.31
2023-07-15T02:13:14.246Z,99870.59
2023-07-15T02:18:17.054Z,99861.69
2023-07-15T02:23:21.737Z,99849.44
2023-07-15T02:28:27.732Z,99851.75
2023-07-15T02:33:31.553Z,99849.13
2023-07-15T02:38:36.171Z,99841.72
2023-07-15T02:43:39.040Z,99841.09
2023-07-15T02:48:42.240Z,99847.75
2023-07-15T02:53:49.585Z,99844.97
2023-07-15T02:58:52.371Z,99845.50
2023-07-15T03:03:55.211Z,99841.06
2023-07-15T03:08:59.442Z,99842.13
2023-07-15T03:14:02.607Z,99849.13
2023-07-15T03:19:05.553Z,99839.06
2023-07-15T03:24:10.439Z,99840.31
2023-07-15T03:29:15.735Z,99843.31
2023-07-15T03:34:19.709Z,99831.53
2023-07-15T03:39:24.360Z,99837.06
2023-07-15T03:44:27.257Z,99832.94
2023-07-15T03:49:30.026Z,99838.47
2023-07-15T03:54:34.171Z,99839.47
2023-07-15T03:59:37.088Z,99837.47
2023-07-15T04:04:39.929Z,99833.25
2023-07-15T04:09:44.174Z,99832.38
2023-07-15T04:14:47.025Z,99827.56
2023-07-15T04:19:49.856Z,99832.94
2023-07-15T04:24:54.023Z,99833.25
2023-07-15T04:29:57.015Z,99820.78
2023-07-15T04:34:59.833Z,99823.63
2023-07-15T04:40:05.333Z,99825.84
2023-07-15T04:45:09.107Z,99828.97
2023-07-15T04:50:11.938Z,99814.50
2023-07-15T04:55:16.872Z,99815.47
2023-07-15T05:00:21.650Z,99820.38
2023-07-15T05:05:24.798Z,99817.97
2023-07-15T05:10:29.161Z,99810.84
2023-07-15T05:15:32.764Z,99803.34
2023-07-15T05:20:35.685Z,99819.69
2023-07-15T05:25:39.886Z,99825.22
2023-07-15T05:30:43.024Z,99813.72
2023-07-15T05:35:45.972Z,99823.44
2023-07-15T05:40:50.165Z,99818.22
2023-07-15T05:45:53.108Z,99812.28
2023-07-15T05:50:55.897Z,99814.72
2023-07-15T05:56:00.049Z,99821.31
2023-07-15T06:01:02.887Z,99815.25
2023-07-15T06:06:05.880Z,99814.78
2023-07-15T06:11:12.142Z,99807.63
2023-07-15T06:16:15.221Z,99804.75
2023-07-15T06:21:18.148Z,99812.50
2023-07-15T06:26:22.508Z,99814.56
2023-07-15T06:31:25.723Z,99813.97
2023-07-15T06:36:28.750Z,99815.28
2023-07-15T06:41:33.040Z,99800.78
2023-07-15T06:46:36.129Z,99796.63
2023-07-15T06:51:39.030Z,99801.41
2023-07-15T06:56:43.296Z,99787.63
2023-07-15T07:01:46.176Z,99788.41
2023-07-15T07:06:49.009Z,99784.53
2023-07-15T07:11:53.239Z,99781.50
2023-07-15T07:16:56.135Z,99771.94
2023-07-15T07:21:58.937Z,99768.69
2023-07-15T07:27:03.342Z,99765.56
2023-07-15T07:32:07.234Z,99760.38
2023-07-15T07:37:10.634Z,99755.97
2023-07-15T07:42:14.901Z,99746.38
2023-07-15T07:47:18.052Z,99744.19
2023-07-15T07:52:20.893Z,99747.06
2023-07-15T07:57:25.046Z,99749.16
2023-07-15T08:02:28.177Z,99747.31
2023-07-15T08:07:31.083Z,99750.69
2023-07-15T08:12:35.411Z,99743.91
2023-07-15T08:17:38.319Z,99747.16
2023-07-15T08:22:41.306Z,99751.19
2023-07-15T08:27:45.694Z,99752.75
2023-07-15T08:32:48.562Z,99757.16
2023-07-15T08:37:54.109Z,99750.53
2023-07-15T08:42:58.906Z,99736.69
2023-07-15T08:48:01.965Z,99750.03
2023-07-15T08:53:05.028Z,99746.50
2023-07-15T08:58:09.241Z,99736.34
2023-07-15T09:03:12.040Z,99731.09
2023-07-15T09:08:16.669Z,99730.94
2023-07-15T09:13:25.669Z,99745.00
2023-07-15T09:18:28.522Z,99738.22
2023-07-15T09:23:31.351Z,99738.88
2023-07-15T09:28:35.661Z,99734.16
2023-07-15T09:33:40.782Z,99737.22
2023-07-15T09:38:43.867Z,99726.56
2023-07-15T09:43:48.926Z,99738.41
2023-07-15T09:48:53.230Z,99752.63
2023-07-15T09:53:57.102Z,99752.47
2023-07-15T09:59:04.909Z,99745.69
2023-07-15T10:04:12.817Z,99751.63
2023-07-15T10:09:15.853Z,99759.56
2023-07-15T10:14:21.792Z,99749.56
2023-07-15T10:19:48.886Z,99753.13
2023-07-15T10:24:54.884Z,99739.41
2023-07-15T10:30:17.346Z,99737.19
2023-07-15T10:35:20.878Z,99749.56
2023-07-15T10:40:49.809Z,99747.69
2023-07-15T10:45:54.841Z,99756.97
2023-07-15T10:50:58.359Z,99743.97
2023-07-15T10:56:02.092Z,99744.97
2023-07-15T11:01:07.044Z,99736.66
2023-07-15T11:06:11.063Z,99735.09
2023-07-15T11:11:14.310Z,99728.53
2023-07-15T11:16:19.209Z,99732.75
2023-07-15T11:21:23.340Z,99731.53
2023-07-15T11:26:26.932Z,99724.59
2023-07-15T11:31:31.257Z,99722.41
2023-07-15T11:36:34.315Z,99724.75
2023-07-15T11:41:38.416Z,99710.50
2023-07-15T11:46:46.141Z,99694.56
2023-07-15T11:51:49.017Z,99688.78
2023-07-15T11:56:56.692Z,99699.09
2023-07-15T12:02:04.804Z,99696.16
2023-07-15T12:07:08.001Z,99693.78
2023-07-15T12:12:10.952Z,99685.78
2023-07-15T12:17:15.374Z,99678.78
2023-07-15T12:22:18.212Z,99674.00
2023-07-15T12:27:21.336Z,99668.25
2023-07-15T12:32:26.594Z,99654.66
2023-07-15T12:37:29.683Z,99654.78
2023-07-15T12:42:32.554Z,99654.72
2023-07-15T12:47:36.831Z,99662.25
2023-07-15T12:52:39.928Z,99658.13
2023-07-15T12:57:45.424Z,99661.47
2023-07-15T13:02:50.404Z,99646.63
2023-07-15T13:07:54.132Z,99648.91
2023-07-15T13:12:57.039Z,99638.31
2023-07-15T13:18:01.501Z,99629.81
2023-07-15T13:23:04.743Z,99632.16
2023-07-15T13:28:08.223Z,99630.94
2023-07-15T13:33:12.538Z,99626.34
2023-07-15T13:38:15.559Z,99607.19
2023-07-15T13:43:18.427Z,99606.13
2023-07-15T13:48:22.658Z,99601.78
2023-07-15T13:53:25.481Z,99585.00
2023-07-15T13:58:28.296Z,99588.66
2023-07-15T14:03:32.528Z,99583.53
2023-07-15T14:08:35.401Z,99578.00
2023-07-15T14:13:38.538Z,99565.00
2023-07-15T14:18:43.197Z,99554.97
2023-07-15T14:23:46.077Z,99546.66
2023-07-15T14:28:48.928Z,99547.19
2023-07-15T14:33:55.345Z,99543.16
2023-07-15T14:38:58.422Z,99542.38
2023-07-15T14:44:01.356Z,99534.63
2023-07-15T14:49:05.743Z,99537.66
2023-07-15T14:54:09.013Z,99541.75
2023-07-15T14:59:11.873Z,99538.22
2023-07-15T15:04:16.151Z,99520.84
2023-07-15T15:09:19.075Z,99521.75
2023-07-15T15:14:22.643Z,99516.53
2023-07-15T15:19:27.499Z,99511.28
2023-07-15T15:24:30.731Z,99508.75
2023-07-15T15:29:33.552Z,99510.16
2023-07-15T15:34:37.951Z,99512.94
2023-07-15T15:39:42.209Z,99510.88
2023-07-15T15:44:45.087Z,99500.34
2023-07-15T15:49:49.282Z,99513.34
2023-07-15T15:54:52.121Z,99502.03
2023-07-15T15:59:56.924Z,99498.84
2023-07-15T16:05:01.227Z,99498.75
2023-07-15T16:10:04.439Z,99487.38
2023-07-15T16:15:08.637Z,99490.84
2023-07-15T16:20:13.360Z,99491.41
2023-07-15T16:25:16.380Z,99490.69
2023-07-15T16:30:19.240Z,99478.88
2023-07-15T16:35:23.441Z,99480.06
2023-07-15T16:40:26.393Z,99483.47
2023-07-15T16:45:29.522Z,99480.06
2023-07-15T16:50:33.743Z,99473.81
2023-07-15T16:55:36.744Z,99474.84
2023-07-15T17:00:39.622Z,99466.91
2023-07-15T17:05:43.870Z,99464.19
2023-07-15T17:10:46.717Z,99456.38
2023-07-15T17:15:49.583Z,99467.53
2023-07-15T17:20:54.184Z,99462.59
2023-07-15T17:25:57.036Z,99451.44
2023-07-15T17:30:59.993Z,99450.50
2023-07-15T17:36:04.426Z,99441.59
2023-07-15T17:41:07.363Z,99437.38
2023-07-15T17:46:10.327Z,99439.44
2023-07-15T17:51:15.011Z,99427.94
2023-07-15T17:56:19.504Z,99423.34
2023-07-15T18:01:22.398Z,99427.53
2023-07-15T18:06:26.882Z,99419.03
2023-07-15T18:11:29.733Z,99403.38
2023-07-15T18:16:32.729Z,99393.91
2023-07-15T18:21:37.211Z,99389.16
2023-07-15T18:26:40.068Z,99400.88
2023-07-15T18:31:42.979Z,99408.53
2023-07-15T18:36:47.348Z,99411.34
2023-07-15T18:41:50.288Z,99413.38
2023-07-15T18:46:53.189Z,99425.72
2023-07-15T18:51:57.452Z,99443.41
2023-07-15T18:57:12.159Z,99471.38
2023-07-15T19:02:23.490Z,99475.88
2023-07-15T19:07:30.555Z,99530.72
2023-07-15T19:12:33.430Z,99591.38
2023-07-15T19:17:36.989Z,99628.22
2023-07-15T19:22:41.214Z,99669.97
2023-07-15T19:27:44.167Z,99735.84
2023-07-15T19:32:47.096Z,99756.16
2023-07-15T19:37:51.454Z,99721.28
2023-07-15T19:42:54.571Z,99730.78
2023-07-15T19:47:57.636Z,99737.06
2023-07-15T19:53:02.028Z,99757.81
2023-07-15T19:58:04.968Z,99775.09
2023-07-15T20:03:08.048Z,99799.63
2023-07-15T20:08:12.381Z,99832.97
2023-07-15T20:13:17.571Z,99891.38
2023-07-15T20:18:20.789Z,99920.78
2023-07-15T20:23:25.073Z,99860.75
2023-07-15T20:28:28.164Z,99859.50
2023-07-15T20:33:31.185Z,99859.09
2023-07-15T20:38:36.801Z,99847.81
2023-07-15T20:43:39.807Z,99829.91
2023-07-15T20:48:42.625Z,99774.69
2023-07-15T20:53:46.798Z,99631.84
2023-07-15T20:58:49.641Z,99602.69
2023-07-15T21:03:53.100Z,99600.44
2023-07-15T21:08:57.311Z,99564.19
2023-07-15T21:14:00.331Z,99551.34
2023-07-15T21:19:03.242Z,99570.16
2023-07-15T21:24:07.736Z,99569.97
2023-07-15T21:29:10.568Z,99570.44
2023-07-15T21:34:13.466Z,99576.78
2023-07-15T21:39:17.748Z,99585.84
2023-07-15T21:44:20.577Z,99607.16
2023-07-15T21:49:23.595Z,99613.31
2023-07-15T21:54:27.825Z,99604.69
2023-07-15T21:59:30.835Z,99570.44
2023-07-15T22:04:34.821Z,99567.59
2023-07-15T22:09:39.119Z,99588.88
2023-07-15T22:14:41.897Z,99622.88
2023-07-15T22:19:44.732Z,99640.91
2023-07-15T22:24:48.859Z,99623.56
2023-07-15T22:29:51.700Z,99645.28
2023-07-15T22:34:54.517Z,99671.34
2023-07-15T22:39:58.775Z,99668.56
2023-07-15T22:45:01.683Z,99671.44
2023-07-15T22:50:04.793Z,99693.59
2023-07-15T22:55:09.702Z,99707.78
2023-07-15T23:00:14.081Z,99710.53
2023-07-15T23:05:16.947Z,99735.28
2023-07-15T23:10:21.535Z,99782.00
2023-07-15T23:15:24.350Z,99769.63
2023-07-15T23:20:27.085Z,99773.69
2023-07-15T23:25:31.217Z,99792.34
2023-07-15T23:30:34.344Z,99805.22
2023-07-15T23:35:41.236Z,99827.22
2023-07-15T23:40:45.439Z,99839.41
2023-07-15T23:45:48.198Z,99867.53
2023-07-15T23:50:51.161Z,99910.88
2023-07-15T23:55:55.421Z,99997.69
